Terminal Aerodrome Forecast
Issued by NWS

Home | Current Version | Previous Version | Text Only | Print | Product List | Glossary On
Versions: 1 2 3 4 5 6 7 8 9 10 11 12
000
FTUS46 KPDT 292300
TAFRDM
TAF
KRDM 292326Z 3000/3024 33014G20KT P6SM BKN200
     FM300400 32008KT P6SM BKN200
     FM300700 VRB05KT P6SM SCT150 SCT250
     FM302000 32008KT P6SM FEW070 SCT150
     FM302200 31013G20KT P6SM SCT070 BKN150=

USA.gov is the U.S. government's official web portal to all federal, state and local government web resources and services.